createdAt,value
2019-03-24T00:02:13.090Z,21.30
2019-03-24T00:04:46.746Z,17.67
2019-03-24T00:07:21.695Z,18.03
2019-03-24T00:09:53.784Z,17.07
2019-03-24T00:12:29.435Z,17.37
2019-03-24T00:15:02.884Z,16.30
2019-03-24T00:17:38.039Z,16.87
2019-03-24T00:20:13.562Z,15.43
2019-03-24T00:22:47.854Z,15.40
2019-03-24T00:25:21.479Z,18.70
2019-03-24T00:27:57.121Z,19.77
2019-03-24T00:30:31.519Z,20.30
2019-03-24T00:33:07.770Z,18.10
2019-03-24T00:35:42.127Z,19.10
2019-03-24T00:38:14.479Z,16.90
2019-03-24T00:40:47.233Z,17.03
2019-03-24T00:43:20.709Z,17.10
2019-03-24T00:45:56.183Z,16.33
2019-03-24T00:48:30.777Z,16.37
2019-03-24T00:51:03.820Z,15.33
2019-03-24T00:53:36.914Z,15.87
2019-03-24T00:56:12.542Z,19.60
2019-03-24T00:58:48.546Z,16.63
2019-03-24T01:01:20.907Z,19.17
2019-03-24T01:03:55.278Z,19.87
2019-03-24T01:06:29.577Z,18.77
2019-03-24T01:09:02.111Z,16.93
2019-03-24T01:11:35.009Z,18.97
2019-03-24T01:14:09.780Z,18.60
2019-03-24T01:16:41.981Z,18.53
2019-03-24T01:19:14.590Z,19.37
2019-03-24T01:21:49.008Z,20.20
2019-03-24T01:24:21.176Z,18.37
2019-03-24T01:26:53.976Z,17.30
2019-03-24T01:29:27.010Z,15.80
2019-03-24T01:32:02.776Z,16.73
2019-03-24T01:34:37.016Z,16.10
2019-03-24T01:37:11.197Z,16.00
2019-03-24T01:39:44.012Z,15.70
2019-03-24T01:42:19.773Z,16.13
2019-03-24T01:44:53.215Z,18.90
2019-03-24T01:47:26.205Z,17.50
2019-03-24T01:50:00.780Z,17.43
2019-03-24T01:52:32.688Z,19.07
2019-03-24T01:55:06.352Z,17.50
2019-03-24T01:57:43.465Z,17.07
2019-03-24T02:00:15.381Z,16.87
2019-03-24T02:02:49.496Z,17.50
2019-03-24T02:05:23.255Z,16.63
2019-03-24T02:07:57.938Z,17.00
2019-03-24T02:10:31.277Z,16.43
2019-03-24T02:13:04.072Z,14.80
2019-03-24T02:15:37.300Z,17.40
2019-03-24T02:18:11.187Z,20.27
2019-03-24T02:20:46.870Z,19.33
2019-03-24T02:23:22.425Z,17.87
2019-03-24T02:25:55.795Z,20.67
2019-03-24T02:28:29.565Z,18.13
2019-03-24T02:31:03.566Z,18.40
2019-03-24T02:33:35.728Z,18.37
2019-03-24T02:36:11.734Z,19.30
2019-03-24T02:38:47.227Z,17.97
2019-03-24T02:41:18.984Z,18.03
2019-03-24T02:43:53.447Z,19.23
2019-03-24T02:46:26.363Z,18.43
2019-03-24T02:49:00.377Z,16.53
2019-03-24T02:51:34.502Z,17.40
2019-03-24T02:54:06.716Z,16.37
2019-03-24T02:56:38.480Z,17.20
2019-03-24T02:59:11.584Z,17.50
2019-03-24T03:01:46.440Z,16.00
2019-03-24T03:04:20.131Z,16.80
2019-03-24T03:06:53.250Z,19.30
2019-03-24T03:09:27.215Z,18.97
2019-03-24T03:11:59.547Z,21.80
2019-03-24T03:14:33.751Z,20.60
2019-03-24T03:17:07.152Z,17.23
2019-03-24T03:19:40.438Z,18.33
2019-03-24T03:22:14.639Z,19.10
2019-03-24T03:24:47.487Z,19.67
2019-03-24T03:27:21.628Z,18.67
2019-03-24T03:29:53.553Z,17.30
2019-03-24T03:32:25.784Z,19.17
2019-03-24T03:35:01.076Z,18.10
2019-03-24T03:37:34.070Z,19.17
2019-03-24T03:40:09.571Z,19.80
2019-03-24T03:42:43.442Z,20.53
2019-03-24T03:45:20.334Z,18.37
2019-03-24T03:47:56.010Z,19.10
2019-03-24T03:50:30.212Z,18.30
2019-03-24T03:53:04.807Z,20.27
2019-03-24T03:55:37.306Z,22.00
2019-03-24T03:58:12.880Z,21.30
2019-03-24T04:00:49.256Z,22.40
2019-03-24T04:03:23.867Z,22.13
2019-03-24T04:05:57.842Z,21.23
2019-03-24T04:08:30.633Z,21.03
2019-03-24T04:11:05.121Z,20.67
2019-03-24T04:13:39.086Z,22.53
2019-03-24T04:16:12.267Z,20.60
2019-03-24T04:18:45.837Z,22.20
2019-03-24T04:21:18.297Z,21.30
2019-03-24T04:23:55.222Z,22.93
2019-03-24T04:26:29.022Z,22.47
2019-03-24T04:29:03.347Z,24.03
2019-03-24T04:31:36.865Z,20.27
2019-03-24T04:34:10.508Z,19.80
2019-03-24T04:36:43.876Z,19.10
2019-03-24T04:39:15.623Z,20.97
2019-03-24T04:41:47.958Z,27.17
2019-03-24T04:44:20.797Z,29.23
2019-03-24T04:46:55.197Z,29.63
2019-03-24T04:49:27.102Z,25.57
2019-03-24T04:52:01.604Z,22.80
2019-03-24T04:54:36.100Z,20.10
2019-03-24T04:57:12.320Z,21.70
2019-03-24T04:59:47.648Z,20.33
2019-03-24T05:02:22.025Z,21.33
2019-03-24T05:04:58.300Z,21.43
2019-03-24T05:07:30.278Z,21.47
2019-03-24T05:10:04.313Z,21.13
2019-03-24T05:12:39.974Z,21.00
2019-03-24T05:15:14.213Z,21.03
2019-03-24T05:17:49.605Z,20.57
2019-03-24T05:20:21.555Z,22.37
2019-03-24T05:22:56.830Z,22.30
2019-03-24T05:25:31.718Z,21.07
2019-03-24T05:28:07.638Z,22.37
2019-03-24T05:30:42.803Z,22.13
2019-03-24T05:33:15.123Z,22.10
2019-03-24T05:35:48.840Z,22.67
2019-03-24T05:38:21.603Z,22.00
2019-03-24T05:40:54.568Z,19.30
2019-03-24T05:43:27.657Z,18.80
2019-03-24T05:46:00.238Z,18.73
2019-03-24T05:48:33.361Z,19.57
2019-03-24T05:51:07.799Z,18.90
2019-03-24T05:53:40.804Z,19.90
2019-03-24T05:56:14.163Z,23.50
2019-03-24T05:58:48.913Z,21.70
2019-03-24T06:01:22.652Z,19.43
2019-03-24T06:03:55.429Z,17.90
2019-03-24T06:06:28.640Z,17.73
2019-03-24T06:09:04.985Z,18.50
2019-03-24T06:11:40.881Z,17.53
2019-03-24T06:14:15.451Z,19.13
2019-03-24T06:16:51.913Z,17.90
2019-03-24T06:19:28.617Z,16.90
2019-03-24T06:22:02.795Z,19.20
2019-03-24T06:24:37.771Z,18.80
2019-03-24T06:27:11.725Z,17.30
2019-03-24T06:29:45.614Z,19.53
2019-03-24T06:32:20.392Z,20.20
2019-03-24T06:34:56.342Z,20.10
2019-03-24T06:37:32.924Z,21.30
2019-03-24T06:40:11.915Z,21.50
2019-03-24T06:42:50.620Z,21.00
2019-03-24T06:45:29.009Z,18.30
2019-03-24T06:48:05.632Z,19.60
2019-03-24T06:50:41.197Z,20.63
2019-03-24T06:53:15.188Z,19.77
2019-03-24T06:55:54.200Z,20.80
2019-03-24T06:58:29.178Z,24.23
2019-03-24T07:01:07.148Z,22.20
2019-03-24T07:03:40.134Z,20.73
2019-03-24T07:06:13.189Z,20.80
2019-03-24T07:08:46.874Z,21.93
2019-03-24T07:11:20.118Z,21.00
2019-03-24T07:13:55.923Z,20.63
2019-03-24T07:16:30.196Z,18.90
2019-03-24T07:19:03.949Z,19.70
2019-03-24T07:21:39.035Z,17.80
2019-03-24T07:24:12.632Z,18.73
2019-03-24T07:26:53.100Z,18.87
2019-03-24T07:29:29.662Z,18.43
2019-03-24T07:32:05.935Z,20.00
2019-03-24T07:34:43.158Z,21.10
2019-03-24T07:37:15.930Z,21.47
2019-03-24T07:39:50.538Z,21.00
2019-03-24T07:42:24.801Z,19.70
2019-03-24T07:44:58.557Z,21.70
2019-03-24T07:47:33.743Z,22.00
2019-03-24T07:50:11.945Z,19.90
2019-03-24T07:52:45.209Z,21.87
2019-03-24T07:55:19.394Z,24.73
2019-03-24T07:57:52.085Z,23.27
2019-03-24T08:00:34.206Z,21.73
2019-03-24T08:03:09.482Z,23.77
2019-03-24T08:05:44.183Z,22.43
2019-03-24T08:08:16.531Z,22.23
2019-03-24T08:10:52.800Z,23.17
2019-03-24T08:13:28.505Z,24.13
2019-03-24T08:16:05.349Z,24.80
2019-03-24T08:18:41.049Z,23.67
2019-03-24T08:21:13.807Z,21.77
2019-03-24T08:23:46.444Z,23.63
2019-03-24T08:26:19.473Z,24.10
2019-03-24T08:28:54.785Z,21.87
2019-03-24T08:31:28.805Z,22.93
2019-03-24T08:34:06.234Z,22.20
2019-03-24T08:36:43.178Z,23.47
2019-03-24T08:39:17.172Z,24.10
2019-03-24T08:41:53.369Z,25.00
2019-03-24T08:44:30.847Z,24.93
2019-03-24T08:47:04.775Z,24.87
2019-03-24T08:49:40.483Z,24.63
2019-03-24T08:52:19.589Z,24.20
2019-03-24T08:54:59.902Z,23.80
2019-03-24T08:57:35.747Z,26.73
2019-03-24T09:00:11.159Z,25.37
2019-03-24T09:02:46.179Z,26.10
2019-03-24T09:05:25.998Z,26.33
2019-03-24T09:08:02.860Z,24.23
2019-03-24T09:10:38.341Z,25.80
2019-03-24T09:13:20.452Z,24.40
2019-03-24T09:15:58.138Z,24.10
2019-03-24T09:18:33.382Z,23.50
2019-03-24T09:21:05.876Z,24.37
2019-03-24T09:23:39.040Z,24.73
2019-03-24T09:26:14.440Z,25.03
2019-03-24T09:28:49.473Z,23.60
2019-03-24T09:31:23.827Z,24.00
2019-03-24T09:33:59.678Z,22.93
2019-03-24T09:36:36.878Z,23.70
2019-03-24T09:39:10.380Z,24.63
2019-03-24T09:41:45.238Z,23.83
2019-03-24T09:44:19.409Z,25.10
2019-03-24T09:46:53.635Z,25.43
2019-03-24T09:49:27.599Z,23.77
2019-03-24T09:52:03.432Z,24.67
2019-03-24T09:54:36.792Z,24.93
2019-03-24T09:57:09.445Z,25.03
2019-03-24T09:59:46.307Z,27.20
2019-03-24T10:02:19.225Z,27.47
2019-03-24T10:04:54.930Z,25.80
2019-03-24T10:07:27.314Z,26.60
2019-03-24T10:10:00.817Z,26.70
2019-03-24T10:12:34.319Z,25.47
2019-03-24T10:15:09.812Z,24.17
2019-03-24T10:17:45.069Z,25.80
2019-03-24T10:20:20.159Z,27.00
2019-03-24T10:22:56.307Z,26.40
2019-03-24T10:25:31.575Z,26.93
2019-03-24T10:28:11.751Z,26.47
2019-03-24T10:30:48.285Z,27.53
2019-03-24T10:33:25.116Z,30.33
2019-03-24T10:36:01.419Z,30.00
2019-03-24T10:38:36.378Z,28.77
2019-03-24T10:41:10.910Z,29.30
2019-03-24T10:43:47.155Z,30.30
2019-03-24T10:46:23.445Z,31.43
2019-03-24T10:49:02.116Z,31.33
2019-03-24T10:51:38.174Z,28.87
2019-03-24T10:54:15.053Z,28.43
2019-03-24T10:56:51.035Z,29.80
2019-03-24T10:59:27.657Z,30.00
2019-03-24T11:02:10.579Z,30.23
2019-03-24T11:04:48.066Z,31.17
2019-03-24T11:07:25.793Z,29.80
2019-03-24T11:10:01.815Z,28.30
2019-03-24T11:12:39.826Z,31.80
2019-03-24T11:15:15.556Z,33.90
2019-03-24T11:17:52.089Z,31.23
2019-03-24T11:20:27.280Z,28.97
2019-03-24T11:23:01.885Z,30.67
2019-03-24T11:25:40.976Z,32.20
2019-03-24T11:28:19.386Z,35.30
2019-03-24T11:30:56.637Z,28.93
2019-03-24T11:33:31.428Z,31.27
2019-03-24T11:36:08.507Z,33.07
2019-03-24T11:38:44.682Z,32.17
2019-03-24T11:41:21.926Z,31.90
2019-03-24T11:44:00.501Z,32.67
2019-03-24T11:46:35.604Z,33.50
2019-03-24T11:49:18.383Z,37.10
2019-03-24T11:51:57.841Z,32.00
2019-03-24T11:54:35.204Z,35.17
2019-03-24T11:57:12.068Z,32.83
2019-03-24T11:59:47.123Z,33.53
2019-03-24T12:02:25.918Z,36.43
2019-03-24T12:05:00.346Z,37.57
2019-03-24T12:07:40.432Z,35.07
2019-03-24T12:10:18.000Z,33.50
2019-03-24T12:12:54.568Z,33.60
2019-03-24T12:15:30.762Z,36.93
2019-03-24T12:18:08.972Z,35.43
2019-03-24T12:20:47.315Z,32.43
2019-03-24T12:23:25.492Z,33.00
2019-03-24T12:26:02.016Z,35.03
2019-03-24T12:28:35.603Z,35.17
2019-03-24T12:38:13.058Z,35.30
2019-03-24T12:40:47.697Z,35.03
2019-03-24T12:43:22.739Z,33.73
2019-03-24T12:45:57.694Z,31.80
2019-03-24T12:48:32.578Z,31.30
2019-03-24T12:51:08.992Z,32.00
2019-03-24T12:53:43.637Z,35.97
2019-03-24T12:56:16.294Z,33.93
2019-03-24T12:58:52.115Z,32.33
2019-03-24T13:01:26.176Z,32.20
2019-03-24T13:03:58.743Z,30.40
2019-03-24T13:06:33.496Z,29.47
2019-03-24T13:09:08.941Z,27.50
2019-03-24T13:11:41.175Z,30.97
2019-03-24T13:14:14.229Z,28.60
2019-03-24T13:16:47.227Z,30.07
2019-03-24T13:19:19.308Z,29.90
2019-03-24T13:21:52.061Z,28.77
2019-03-24T13:24:25.707Z,28.67
2019-03-24T13:26:59.336Z,31.03
2019-03-24T13:29:33.166Z,27.50
2019-03-24T13:32:06.363Z,31.60
2019-03-24T13:34:40.314Z,28.33
2019-03-24T13:37:13.405Z,27.83
2019-03-24T13:39:47.505Z,31.60
2019-03-24T13:42:20.407Z,32.57
2019-03-24T13:44:56.525Z,30.27
2019-03-24T13:47:31.335Z,29.77
2019-03-24T13:50:04.942Z,30.40
2019-03-24T13:52:41.211Z,28.00
2019-03-24T13:55:15.434Z,30.83
2019-03-24T13:57:48.401Z,28.97
2019-03-24T14:00:21.394Z,32.40
2019-03-24T14:02:53.223Z,32.30
2019-03-24T14:05:28.049Z,32.30
2019-03-24T14:08:00.462Z,33.53
2019-03-24T14:10:34.831Z,32.57
2019-03-24T14:13:07.480Z,34.30
2019-03-24T14:15:40.477Z,29.73
2019-03-24T14:18:14.478Z,30.83
2019-03-24T14:20:48.115Z,30.60
2019-03-24T14:23:22.379Z,29.23
2019-03-24T14:25:55.517Z,27.60
2019-03-24T14:28:28.872Z,29.13
2019-03-24T14:31:02.519Z,29.37
2019-03-24T14:33:36.150Z,30.13
2019-03-24T14:36:10.184Z,29.73
2019-03-24T14:38:43.427Z,28.67
2019-03-24T14:41:15.784Z,29.37
2019-03-24T14:43:47.588Z,27.77
2019-03-24T14:46:20.862Z,29.53
2019-03-24T14:48:54.663Z,28.80
2019-03-24T14:51:32.390Z,28.37
2019-03-24T14:54:04.627Z,30.43
2019-03-24T14:56:38.665Z,27.90
2019-03-24T14:59:11.623Z,26.30
2019-03-24T15:01:47.579Z,27.10
2019-03-24T15:04:21.731Z,30.90
2019-03-24T15:06:55.728Z,29.00
2019-03-24T15:09:29.910Z,28.30
2019-03-24T15:12:02.762Z,30.40
2019-03-24T15:14:36.798Z,26.30
2019-03-24T15:17:11.433Z,28.33
2019-03-24T15:19:58.008Z,31.90
2019-03-24T15:22:31.694Z,29.00
2019-03-24T15:25:06.129Z,30.87
2019-03-24T15:27:40.170Z,28.80
2019-03-24T15:30:13.802Z,29.87
2019-03-24T15:32:46.757Z,32.27
2019-03-24T15:35:18.787Z,29.97
2019-03-24T15:37:51.663Z,31.70
2019-03-24T15:40:25.173Z,32.03
2019-03-24T15:42:59.285Z,31.03
2019-03-24T15:45:32.073Z,34.33
2019-03-24T15:48:05.630Z,32.37
2019-03-24T15:50:39.723Z,32.63
2019-03-24T15:53:12.127Z,32.50
2019-03-24T15:55:46.777Z,32.77
2019-03-24T15:58:19.381Z,33.57
2019-03-24T16:00:53.958Z,32.77
2019-03-24T16:03:27.699Z,32.00
2019-03-24T16:06:00.904Z,31.37
2019-03-24T16:08:34.691Z,31.97
2019-03-24T16:11:07.213Z,31.77
2019-03-24T16:13:40.917Z,31.20
2019-03-24T16:16:14.301Z,31.03
2019-03-24T16:18:47.947Z,26.23
2019-03-24T16:21:27.689Z,28.80
2019-03-24T16:23:54.941Z,29.23
2019-03-24T16:26:36.321Z,27.20
2019-03-24T16:29:12.669Z,27.53
2019-03-24T16:31:45.188Z,28.03
2019-03-24T16:34:20.155Z,25.60
2019-03-24T16:36:52.678Z,28.37
2019-03-24T16:39:25.167Z,26.80
2019-03-24T16:41:59.161Z,24.77
2019-03-24T16:44:33.164Z,27.60
2019-03-24T16:47:06.115Z,25.10
2019-03-24T16:49:40.231Z,25.00
2019-03-24T16:52:14.240Z,28.53
2019-03-24T16:54:47.413Z,27.30
2019-03-24T16:57:21.224Z,27.37
2019-03-24T16:59:54.210Z,25.97
2019-03-24T17:02:28.826Z,27.83
2019-03-24T17:05:02.832Z,26.20
2019-03-24T17:07:35.757Z,26.73
2019-03-24T17:10:09.713Z,24.33
2019-03-24T17:12:43.232Z,26.57
2019-03-24T17:15:15.709Z,26.37
2019-03-24T17:17:51.451Z,30.40
2019-03-24T17:20:23.358Z,26.17
2019-03-24T17:22:57.436Z,28.07
2019-03-24T17:25:30.266Z,26.33
2019-03-24T17:28:05.095Z,53.20
2019-03-24T17:30:37.324Z,36.07
2019-03-24T17:33:09.361Z,34.03
2019-03-24T17:35:42.035Z,30.10
2019-03-24T17:38:18.683Z,32.60
2019-03-24T17:40:52.337Z,42.50
2019-03-24T17:43:25.293Z,36.57
2019-03-24T17:45:59.187Z,39.03
2019-03-24T17:48:32.550Z,38.67
2019-03-24T17:51:04.692Z,35.47
2019-03-24T17:53:36.458Z,36.30
2019-03-24T17:56:10.659Z,35.10
2019-03-24T17:58:44.543Z,39.27
2019-03-24T18:01:16.807Z,39.47
2019-03-24T18:03:50.164Z,40.67
2019-03-24T18:06:24.631Z,40.30
2019-03-24T18:08:58.584Z,43.30
2019-03-24T18:11:32.622Z,40.40
2019-03-24T18:14:05.625Z,41.30
2019-03-24T18:16:39.631Z,43.77
2019-03-24T18:19:13.648Z,44.67
2019-03-24T18:21:46.851Z,42.80
2019-03-24T18:24:19.617Z,44.77
2019-03-24T18:26:52.963Z,44.50
2019-03-24T18:29:24.892Z,44.47
2019-03-24T18:31:58.598Z,43.20
2019-03-24T18:34:32.438Z,43.20
2019-03-24T18:37:05.608Z,43.70
2019-03-24T18:39:39.950Z,42.93
2019-03-24T18:42:15.465Z,45.30
2019-03-24T18:44:47.678Z,44.93
2019-03-24T18:47:20.561Z,45.63
2019-03-24T18:49:52.721Z,43.77
2019-03-24T18:52:25.748Z,45.27
2019-03-24T18:55:01.700Z,42.23
2019-03-24T18:57:35.047Z,43.53
2019-03-24T19:00:11.498Z,43.00
2019-03-24T19:02:44.710Z,42.93
2019-03-24T19:05:17.324Z,41.80
2019-03-24T19:08:01.819Z,44.43
2019-03-24T19:10:35.643Z,40.90
2019-03-24T19:13:08.851Z,40.67
2019-03-24T19:15:41.355Z,42.00
2019-03-24T19:18:15.655Z,41.80
2019-03-24T19:20:48.213Z,41.17
2019-03-24T19:23:21.629Z,45.97
2019-03-24T19:25:54.950Z,47.50
2019-03-24T19:28:28.772Z,44.53
2019-03-24T19:31:01.896Z,43.80
2019-03-24T19:33:35.399Z,45.40
2019-03-24T19:36:08.795Z,43.83
2019-03-24T19:38:43.722Z,48.47
2019-03-24T19:41:16.045Z,43.93
2019-03-24T19:43:49.715Z,41.20
2019-03-24T19:53:12.092Z,45.97
2019-03-24T19:55:44.271Z,44.97
2019-03-24T19:58:16.278Z,40.83
2019-03-24T20:00:51.260Z,43.70
2019-03-24T20:03:26.132Z,43.63
2019-03-24T20:05:58.435Z,41.97
2019-03-24T20:08:34.256Z,43.50
2019-03-24T20:11:08.187Z,42.10
2019-03-24T20:13:42.059Z,44.37
2019-03-24T20:16:15.915Z,44.83
2019-03-24T20:18:49.151Z,44.80
2019-03-24T20:21:24.235Z,41.70
2019-03-24T20:23:57.174Z,42.03
2019-03-24T20:26:30.855Z,39.73
2019-03-24T20:29:05.103Z,41.00
2019-03-24T20:32:13.096Z,40.23
2019-03-24T20:34:47.561Z,43.00
2019-03-24T20:37:19.446Z,42.27
2019-03-24T20:39:52.570Z,43.30
2019-03-24T20:42:24.911Z,42.77
2019-03-24T20:44:58.982Z,42.63
2019-03-24T20:47:33.834Z,47.70
2019-03-24T20:50:08.810Z,43.13
2019-03-24T20:52:44.302Z,43.00
2019-03-24T20:55:16.159Z,45.70
2019-03-24T20:57:51.354Z,44.27
2019-03-24T21:00:33.840Z,42.40
2019-03-24T21:03:09.771Z,42.43
2019-03-24T21:05:44.878Z,41.63
2019-03-24T21:08:16.646Z,38.10
2019-03-24T21:10:49.349Z,41.77
2019-03-24T21:13:22.369Z,41.80
2019-03-24T21:15:56.321Z,43.70
2019-03-24T21:18:30.035Z,43.03
2019-03-24T21:21:03.670Z,41.73
2019-03-24T21:23:37.343Z,40.87
2019-03-24T21:26:11.476Z,42.30
2019-03-24T21:28:44.447Z,40.07
2019-03-24T21:31:16.225Z,42.30
2019-03-24T21:33:49.375Z,41.83
2019-03-24T21:36:22.584Z,42.73
2019-03-24T21:38:59.391Z,39.93
2019-03-24T21:41:33.480Z,45.37
2019-03-24T21:44:08.160Z,42.47
2019-03-24T21:46:41.895Z,41.77
2019-03-24T21:49:16.683Z,42.37
2019-03-24T21:51:48.485Z,41.60
2019-03-24T21:54:22.455Z,41.73
2019-03-24T21:56:54.603Z,38.00
2019-03-24T21:59:28.498Z,44.17
2019-03-24T22:02:01.882Z,43.00
2019-03-24T22:04:34.939Z,41.90
2019-03-24T22:07:12.777Z,40.17
2019-03-24T22:09:45.571Z,44.17
2019-03-24T22:12:19.758Z,43.00
2019-03-24T22:14:53.316Z,43.40
2019-03-24T22:17:25.665Z,45.70
2019-03-24T22:19:59.665Z,42.20
2019-03-24T22:22:33.070Z,42.67
2019-03-24T22:25:10.138Z,42.73
2019-03-24T22:27:45.378Z,41.90
2019-03-24T22:30:17.220Z,38.50
2019-03-24T22:32:51.419Z,39.63
2019-03-24T22:35:25.276Z,40.30
2019-03-24T22:38:00.493Z,40.90
2019-03-24T22:40:35.527Z,42.40
2019-03-24T22:43:07.718Z,42.70
2019-03-24T22:45:41.157Z,40.03
2019-03-24T22:48:15.153Z,43.83
2019-03-24T22:50:47.697Z,41.17
2019-03-24T22:53:19.673Z,44.57
2019-03-24T22:55:54.594Z,43.57
2019-03-24T22:58:26.379Z,41.70
2019-03-24T23:00:59.799Z,40.63
2019-03-24T23:03:31.725Z,38.00
2019-03-24T23:06:06.109Z,38.90
2019-03-24T23:08:39.382Z,44.10
2019-03-24T23:11:13.948Z,40.40
2019-03-24T23:13:47.175Z,38.07
2019-03-24T23:16:19.788Z,38.70
2019-03-24T23:18:52.998Z,39.63
2019-03-24T23:21:27.198Z,40.50
2019-03-24T23:24:01.994Z,44.30
2019-03-24T23:26:34.974Z,42.30
2019-03-24T23:29:08.004Z,39.07
2019-03-24T23:31:42.205Z,39.80
2019-03-24T23:34:15.848Z,44.20
2019-03-24T23:36:49.928Z,42.70
2019-03-24T23:39:22.956Z,44.63
2019-03-24T23:41:54.919Z,43.07
2019-03-24T23:44:28.884Z,36.63
2019-03-24T23:47:03.238Z,39.77
2019-03-24T23:49:37.726Z,38.80
2019-03-24T23:52:10.138Z,38.30
2019-03-24T23:54:42.083Z,39.67
2019-03-24T23:57:14.080Z,43.30
2019-03-24T23:59:47.061Z,41.13
